sensor_id;sensor_type;location;lat;lon;timestamp;pressure;altitude;pressure_sealevel;temperature;humidity
75640;BME280;64233;51.486;6.332;2023-02-24T00:02:01;101235.13;;;1.83;100.00
75640;BME280;64233;51.486;6.332;2023-02-24T00:04:31;101232.00;;;1.80;100.00
75640;BME280;64233;51.486;6.332;2023-02-24T00:06:57;101241.22;;;1.84;100.00
75640;BME280;64233;51.486;6.332;2023-02-24T00:09:24;101230.84;;;1.82;100.00
75640;BME280;64233;51.486;6.332;2023-02-24T00:14:18;101227.81;;;1.70;100.00
75640;BME280;64233;51.486;6.332;2023-02-24T00:16:44;101216.84;;;1.59;100.00
75640;BME280;64233;51.486;6.332;2023-02-24T00:19:12;101210.69;;;1.43;100.00
75640;BME280;64233;51.486;6.332;2023-02-24T00:21:39;101214.59;;;1.32;100.00
75640;BME280;64233;51.486;6.332;2023-02-24T00:24:05;101207.47;;;1.18;100.00
75640;BME280;64233;51.486;6.332;2023-02-24T00:26:31;101207.97;;;1.13;100.00
75640;BME280;64233;51.486;6.332;2023-02-24T00:28:56;101207.81;;;1.15;100.00
75640;BME280;64233;51.486;6.332;2023-02-24T00:31:25;101209.34;;;1.09;100.00
75640;BME280;64233;51.486;6.332;2023-02-24T00:33:54;101205.88;;;1.09;100.00
75640;BME280;64233;51.486;6.332;2023-02-24T00:36:21;101204.88;;;1.10;100.00
75640;BME280;64233;51.486;6.332;2023-02-24T00:38:52;101202.41;;;1.08;100.00
75640;BME280;64233;51.486;6.332;2023-02-24T00:41:25;101209.00;;;1.12;100.00
75640;BME280;64233;51.486;6.332;2023-02-24T00:43:54;101199.22;;;1.13;100.00
75640;BME280;64233;51.486;6.332;2023-02-24T00:46:22;101198.59;;;1.11;100.00
75640;BME280;64233;51.486;6.332;2023-02-24T00:48:50;101196.66;;;1.05;100.00
75640;BME280;64233;51.486;6.332;2023-02-24T00:51:20;101196.19;;;1.01;100.00
75640;BME280;64233;51.486;6.332;2023-02-24T00:53:54;101195.16;;;1.02;100.00
75640;BME280;64233;51.486;6.332;2023-02-24T00:56:22;101188.53;;;1.06;100.00
75640;BME280;64233;51.486;6.332;2023-02-24T00:58:48;101183.16;;;0.99;100.00
75640;BME280;64233;51.486;6.332;2023-02-24T01:01:16;101180.50;;;0.99;100.00
75640;BME280;64233;51.486;6.332;2023-02-24T01:03:43;101179.66;;;0.99;100.00
75640;BME280;64233;51.486;6.332;2023-02-24T01:06:10;101176.34;;;1.05;100.00
75640;BME280;64233;51.486;6.332;2023-02-24T01:08:37;101178.78;;;1.07;100.00
75640;BME280;64233;51.486;6.332;2023-02-24T01:11:04;101178.63;;;1.08;100.00
75640;BME280;64233;51.486;6.332;2023-02-24T01:13:48;101174.44;;;1.14;100.00
75640;BME280;64233;51.486;6.332;2023-02-24T01:16:14;101180.34;;;1.16;100.00
75640;BME280;64233;51.486;6.332;2023-02-24T01:18:43;101171.78;;;1.14;100.00
75640;BME280;64233;51.486;6.332;2023-02-24T01:21:09;101176.34;;;1.20;100.00
75640;BME280;64233;51.486;6.332;2023-02-24T01:23:36;101170.69;;;1.23;100.00
75640;BME280;64233;51.486;6.332;2023-02-24T01:26:02;101170.53;;;1.25;100.00
75640;BME280;64233;51.486;6.332;2023-02-24T01:28:27;101174.28;;;1.30;100.00
75640;BME280;64233;51.486;6.332;2023-02-24T01:30:53;101165.53;;;1.30;100.00
75640;BME280;64233;51.486;6.332;2023-02-24T01:33:19;101170.63;;;1.31;100.00
75640;BME280;64233;51.486;6.332;2023-02-24T01:35:46;101159.06;;;1.32;100.00
75640;BME280;64233;51.486;6.332;2023-02-24T01:38:11;101144.00;;;1.33;100.00
75640;BME280;64233;51.486;6.332;2023-02-24T01:40:36;101151.94;;;1.33;100.00
75640;BME280;64233;51.486;6.332;2023-02-24T01:43:03;101142.81;;;1.35;100.00
75640;BME280;64233;51.486;6.332;2023-02-24T01:45:33;101138.34;;;1.36;100.00
75640;BME280;64233;51.486;6.332;2023-02-24T01:48:02;101136.53;;;1.36;100.00
75640;BME280;64233;51.486;6.332;2023-02-24T01:50:31;101134.06;;;1.35;100.00
75640;BME280;64233;51.486;6.332;2023-02-24T01:53:01;101133.91;;;1.36;100.00
75640;BME280;64233;51.486;6.332;2023-02-24T01:55:31;101127.94;;;1.34;100.00
75640;BME280;64233;51.486;6.332;2023-02-24T01:57:59;101121.22;;;1.32;100.00
75640;BME280;64233;51.486;6.332;2023-02-24T02:00:26;101111.63;;;1.31;100.00
75640;BME280;64233;51.486;6.332;2023-02-24T02:03:22;101115.63;;;1.27;100.00
75640;BME280;64233;51.486;6.332;2023-02-24T02:05:49;101107.53;;;1.28;100.00
75640;BME280;64233;51.486;6.332;2023-02-24T02:08:17;101099.13;;;1.25;100.00
75640;BME280;64233;51.486;6.332;2023-02-24T02:10:43;101094.38;;;1.20;100.00
75640;BME280;64233;51.486;6.332;2023-02-24T02:13:10;101095.72;;;1.16;100.00
75640;BME280;64233;51.486;6.332;2023-02-24T02:15:44;101086.69;;;1.10;100.00
75640;BME280;64233;51.486;6.332;2023-02-24T02:18:20;101083.88;;;1.12;100.00
75640;BME280;64233;51.486;6.332;2023-02-24T02:20:58;101079.78;;;1.09;100.00
75640;BME280;64233;51.486;6.332;2023-02-24T02:26:31;101066.38;;;1.11;100.00
75640;BME280;64233;51.486;6.332;2023-02-24T02:34:55;101058.59;;;0.94;100.00
75640;BME280;64233;51.486;6.332;2023-02-24T02:37:46;101045.09;;;0.89;100.00
75640;BME280;64233;51.486;6.332;2023-02-24T02:40:25;101042.00;;;0.85;100.00
75640;BME280;64233;51.486;6.332;2023-02-24T02:43:03;101036.34;;;0.89;100.00
75640;BME280;64233;51.486;6.332;2023-02-24T02:45:39;101036.53;;;0.87;100.00
75640;BME280;64233;51.486;6.332;2023-02-24T02:48:12;101034.63;;;0.81;100.00
75640;BME280;64233;51.486;6.332;2023-02-24T02:50:45;101029.97;;;0.83;100.00
75640;BME280;64233;51.486;6.332;2023-02-24T02:53:17;101025.78;;;0.89;100.00
75640;BME280;64233;51.486;6.332;2023-02-24T02:55:59;101018.94;;;0.94;100.00
75640;BME280;64233;51.486;6.332;2023-02-24T02:58:29;101012.31;;;0.98;100.00
75640;BME280;64233;51.486;6.332;2023-02-24T03:00:59;101016.22;;;1.02;100.00
75640;BME280;64233;51.486;6.332;2023-02-24T03:03:39;101008.56;;;1.08;100.00
75640;BME280;64233;51.486;6.332;2023-02-24T03:06:16;101020.78;;;1.09;100.00
75640;BME280;64233;51.486;6.332;2023-02-24T03:09:09;101014.31;;;1.11;100.00
75640;BME280;64233;51.486;6.332;2023-02-24T03:11:43;101015.31;;;1.10;100.00
75640;BME280;64233;51.486;6.332;2023-02-24T03:14:13;101009.31;;;1.16;100.00
75640;BME280;64233;51.486;6.332;2023-02-24T03:16:42;101000.53;;;1.16;100.00
75640;BME280;64233;51.486;6.332;2023-02-24T03:19:19;100998.34;;;1.19;100.00
75640;BME280;64233;51.486;6.332;2023-02-24T03:22:11;100999.69;;;1.30;100.00
75640;BME280;64233;51.486;6.332;2023-02-24T03:24:39;100990.25;;;1.21;100.00
75640;BME280;64233;51.486;6.332;2023-02-24T03:27:12;100990.06;;;1.23;100.00
75640;BME280;64233;51.486;6.332;2023-02-24T03:29:52;100991.88;;;1.22;100.00
75640;BME280;64233;51.486;6.332;2023-02-24T03:32:23;100988.78;;;1.18;100.00
75640;BME280;64233;51.486;6.332;2023-02-24T03:35:08;100998.19;;;1.21;100.00
75640;BME280;64233;51.486;6.332;2023-02-24T03:37:37;100989.06;;;1.24;100.00
75640;BME280;64233;51.486;6.332;2023-02-24T03:40:08;100988.50;;;1.28;100.00
75640;BME280;64233;51.486;6.332;2023-02-24T03:42:37;100980.38;;;1.30;100.00
75640;BME280;64233;51.486;6.332;2023-02-24T03:45:04;100985.22;;;1.26;100.00
75640;BME280;64233;51.486;6.332;2023-02-24T03:47:30;100974.66;;;1.26;100.00
75640;BME280;64233;51.486;6.332;2023-02-24T03:49:56;100980.94;;;1.25;100.00
75640;BME280;64233;51.486;6.332;2023-02-24T03:52:41;100981.38;;;1.29;100.00
75640;BME280;64233;51.486;6.332;2023-02-24T03:57:59;100972.59;;;1.43;100.00
75640;BME280;64233;51.486;6.332;2023-02-24T04:06:12;100969.84;;;1.51;100.00
75640;BME280;64233;51.486;6.332;2023-02-24T04:08:55;100969.59;;;1.46;100.00
75640;BME280;64233;51.486;6.332;2023-02-24T04:11:33;100962.75;;;1.52;100.00
75640;BME280;64233;51.486;6.332;2023-02-24T04:14:06;100959.63;;;1.48;100.00
75640;BME280;64233;51.486;6.332;2023-02-24T04:16:56;100969.22;;;1.49;100.00
75640;BME280;64233;51.486;6.332;2023-02-24T04:19:26;100964.38;;;1.53;100.00
75640;BME280;64233;51.486;6.332;2023-02-24T04:21:53;100955.69;;;1.59;100.00
75640;BME280;64233;51.486;6.332;2023-02-24T04:24:21;100955.31;;;1.62;100.00
75640;BME280;64233;51.486;6.332;2023-02-24T04:26:48;100960.22;;;1.65;100.00
75640;BME280;64233;51.486;6.332;2023-02-24T04:29:19;100953.25;;;1.58;100.00
75640;BME280;64233;51.486;6.332;2023-02-24T04:31:50;100951.41;;;1.58;100.00
75640;BME280;64233;51.486;6.332;2023-02-24T04:34:17;100961.38;;;1.56;100.00
75640;BME280;64233;51.486;6.332;2023-02-24T04:36:45;100955.69;;;1.59;100.00
75640;BME280;64233;51.486;6.332;2023-02-24T04:39:18;100952.41;;;1.57;100.00
75640;BME280;64233;51.486;6.332;2023-02-24T04:41:47;100949.03;;;1.63;100.00
75640;BME280;64233;51.486;6.332;2023-02-24T04:44:17;100948.19;;;1.63;100.00
75640;BME280;64233;51.486;6.332;2023-02-24T04:46:43;100949.84;;;1.64;100.00
75640;BME280;64233;51.486;6.332;2023-02-24T04:49:09;100934.78;;;1.64;100.00
75640;BME280;64233;51.486;6.332;2023-02-24T04:51:36;100941.31;;;1.68;100.00
75640;BME280;64233;51.486;6.332;2023-02-24T04:54:02;100933.97;;;1.64;100.00
75640;BME280;64233;51.486;6.332;2023-02-24T04:56:32;100927.88;;;1.63;100.00
75640;BME280;64233;51.486;6.332;2023-02-24T04:58:57;100940.25;;;1.63;100.00
75640;BME280;64233;51.486;6.332;2023-02-24T05:01:23;100942.34;;;1.67;100.00
75640;BME280;64233;51.486;6.332;2023-02-24T05:03:48;100932.97;;;1.65;100.00
75640;BME280;64233;51.486;6.332;2023-02-24T05:06:15;100934.97;;;1.63;100.00
75640;BME280;64233;51.486;6.332;2023-02-24T05:08:41;100931.13;;;1.65;100.00
75640;BME280;64233;51.486;6.332;2023-02-24T05:11:11;100921.34;;;1.66;100.00
75640;BME280;64233;51.486;6.332;2023-02-24T05:13:39;100917.09;;;1.65;100.00
75640;BME280;64233;51.486;6.332;2023-02-24T05:16:09;100918.66;;;1.59;100.00
75640;BME280;64233;51.486;6.332;2023-02-24T05:18:35;100919.97;;;1.70;100.00
75640;BME280;64233;51.486;6.332;2023-02-24T05:21:06;100911.22;;;1.69;100.00
75640;BME280;64233;51.486;6.332;2023-02-24T05:23:52;100911.03;;;1.71;100.00
75640;BME280;64233;51.486;6.332;2023-02-24T05:26:18;100900.25;;;1.72;100.00
75640;BME280;64233;51.486;6.332;2023-02-24T05:28:47;100893.31;;;1.71;100.00
75640;BME280;64233;51.486;6.332;2023-02-24T05:31:19;100888.41;;;1.68;100.00
75640;BME280;64233;51.486;6.332;2023-02-24T05:33:47;100894.06;;;1.65;100.00
75640;BME280;64233;51.486;6.332;2023-02-24T05:36:15;100881.22;;;1.62;100.00
75640;BME280;64233;51.486;6.332;2023-02-24T05:38:45;100888.72;;;1.59;100.00
75640;BME280;64233;51.486;6.332;2023-02-24T05:41:13;100888.34;;;1.62;100.00
75640;BME280;64233;51.486;6.332;2023-02-24T05:43:45;100874.66;;;1.58;100.00
75640;BME280;64233;51.486;6.332;2023-02-24T05:46:26;100882.22;;;1.61;100.00
75640;BME280;64233;51.486;6.332;2023-02-24T05:48:59;100879.59;;;1.61;100.00
75640;BME280;64233;51.486;6.332;2023-02-24T05:51:30;100867.34;;;1.60;100.00
75640;BME280;64233;51.486;6.332;2023-02-24T05:54:07;100865.53;;;1.61;100.00
75640;BME280;64233;51.486;6.332;2023-02-24T05:56:35;100856.59;;;1.62;100.00
75640;BME280;64233;51.486;6.332;2023-02-24T05:59:02;100853.97;;;1.62;100.00
75640;BME280;64233;51.486;6.332;2023-02-24T06:01:33;100845.81;;;1.63;100.00
75640;BME280;64233;51.486;6.332;2023-02-24T06:04:02;100838.06;;;1.62;100.00
75640;BME280;64233;51.486;6.332;2023-02-24T06:06:40;100836.25;;;1.62;100.00
75640;BME280;64233;51.486;6.332;2023-02-24T06:09:10;100830.75;;;1.64;100.00
75640;BME280;64233;51.486;6.332;2023-02-24T06:11:38;100826.06;;;1.66;100.00
75640;BME280;64233;51.486;6.332;2023-02-24T06:14:04;100828.72;;;1.66;100.00
75640;BME280;64233;51.486;6.332;2023-02-24T06:16:34;100826.47;;;1.63;100.00
75640;BME280;64233;51.486;6.332;2023-02-24T06:19:00;100824.00;;;1.61;100.00
75640;BME280;64233;51.486;6.332;2023-02-24T06:21:25;100819.72;;;1.60;100.00
75640;BME280;64233;51.486;6.332;2023-02-24T06:23:54;100827.53;;;1.68;100.00
75640;BME280;64233;51.486;6.332;2023-02-24T06:26:19;100823.88;;;1.69;100.00
75640;BME280;64233;51.486;6.332;2023-02-24T06:28:46;100822.03;;;1.70;100.00
75640;BME280;64233;51.486;6.332;2023-02-24T06:31:12;100814.75;;;1.72;100.00
75640;BME280;64233;51.486;6.332;2023-02-24T06:33:40;100806.03;;;1.78;100.00
75640;BME280;64233;51.486;6.332;2023-02-24T06:36:06;100809.53;;;1.79;100.00
75640;BME280;64233;51.486;6.332;2023-02-24T06:38:35;100806.28;;;1.83;100.00
75640;BME280;64233;51.486;6.332;2023-02-24T06:41:02;100798.56;;;1.88;100.00
75640;BME280;64233;51.486;6.332;2023-02-24T06:43:30;100800.00;;;1.84;100.00
75640;BME280;64233;51.486;6.332;2023-02-24T06:45:55;100793.44;;;1.80;100.00
75640;BME280;64233;51.486;6.332;2023-02-24T06:48:21;100793.06;;;1.83;100.00
75640;BME280;64233;51.486;6.332;2023-02-24T06:50:47;100786.91;;;1.83;100.00
75640;BME280;64233;51.486;6.332;2023-02-24T06:53:14;100783.91;;;1.86;100.00
75640;BME280;64233;51.486;6.332;2023-02-24T06:55:44;100793.44;;;1.80;100.00
75640;BME280;64233;51.486;6.332;2023-02-24T06:58:17;100784.72;;;1.86;100.00
75640;BME280;64233;51.486;6.332;2023-02-24T07:00:44;100790.63;;;1.88;100.00
75640;BME280;64233;51.486;6.332;2023-02-24T07:03:22;100794.06;;;1.82;100.00
75640;BME280;64233;51.486;6.332;2023-02-24T07:05:51;100786.38;;;1.94;100.00
75640;BME280;64233;51.486;6.332;2023-02-24T07:08:35;100791.69;;;1.94;100.00
75640;BME280;64233;51.486;6.332;2023-02-24T07:11:01;100780.09;;;1.95;100.00
75640;BME280;64233;51.486;6.332;2023-02-24T07:13:26;100785.59;;;1.94;100.00
75640;BME280;64233;51.486;6.332;2023-02-24T07:15:55;100783.19;;;1.99;100.00
75640;BME280;64233;51.486;6.332;2023-02-24T07:18:21;100771.41;;;2.01;100.00
75640;BME280;64233;51.486;6.332;2023-02-24T07:20:47;100772.00;;;2.03;100.00
75640;BME280;64233;51.486;6.332;2023-02-24T07:23:16;100763.63;;;2.00;100.00
75640;BME280;64233;51.486;6.332;2023-02-24T07:25:42;100758.75;;;2.03;100.00
75640;BME280;64233;51.486;6.332;2023-02-24T07:28:10;100756.31;;;2.02;100.00
75640;BME280;64233;51.486;6.332;2023-02-24T07:30:39;100750.56;;;1.98;100.00
75640;BME280;64233;51.486;6.332;2023-02-24T07:33:06;100749.81;;;2.04;100.00
75640;BME280;64233;51.486;6.332;2023-02-24T07:35:33;100740.84;;;2.05;100.00
75640;BME280;64233;51.486;6.332;2023-02-24T07:38:00;100747.72;;;2.00;100.00
75640;BME280;64233;51.486;6.332;2023-02-24T07:40:29;100749.19;;;2.02;100.00
75640;BME280;64233;51.486;6.332;2023-02-24T07:42:54;100751.41;;;1.99;100.00
75640;BME280;64233;51.486;6.332;2023-02-24T07:45:21;100747.38;;;2.03;100.00
75640;BME280;64233;51.486;6.332;2023-02-24T07:47:47;100749.63;;;2.06;100.00
75640;BME280;64233;51.486;6.332;2023-02-24T07:50:12;100741.28;;;2.09;100.00
75640;BME280;64233;51.486;6.332;2023-02-24T07:52:45;100738.69;;;2.16;100.00
75640;BME280;64233;51.486;6.332;2023-02-24T07:55:12;100727.44;;;2.14;100.00
75640;BME280;64233;51.486;6.332;2023-02-24T07:57:40;100726.03;;;2.18;100.00
75640;BME280;64233;51.486;6.332;2023-02-24T08:00:12;100711.78;;;2.19;100.00
75640;BME280;64233;51.486;6.332;2023-02-24T08:02:47;100719.13;;;2.23;100.00
75640;BME280;64233;51.486;6.332;2023-02-24T08:05:17;100721.38;;;2.27;100.00
75640;BME280;64233;51.486;6.332;2023-02-24T08:07:45;100709.38;;;2.24;100.00
75640;BME280;64233;51.486;6.332;2023-02-24T08:10:19;100707.94;;;2.28;100.00
75640;BME280;64233;51.486;6.332;2023-02-24T08:12:50;100702.88;;;2.33;100.00
75640;BME280;64233;51.486;6.332;2023-02-24T08:15:19;100709.41;;;2.37;100.00
75640;BME280;64233;51.486;6.332;2023-02-24T08:17:53;100699.84;;;2.36;100.00
75640;BME280;64233;51.486;6.332;2023-02-24T08:20:20;100688.63;;;2.34;100.00
75640;BME280;64233;51.486;6.332;2023-02-24T08:22:48;100692.31;;;2.40;100.00
75640;BME280;64233;51.486;6.332;2023-02-24T08:25:23;100690.28;;;2.42;100.00
75640;BME280;64233;51.486;6.332;2023-02-24T08:27:51;100687.41;;;2.44;100.00
75640;BME280;64233;51.486;6.332;2023-02-24T08:30:20;100687.22;;;2.45;100.00
75640;BME280;64233;51.486;6.332;2023-02-24T08:32:51;100675.81;;;2.45;100.00
75640;BME280;64233;51.486;6.332;2023-02-24T08:35:26;100669.09;;;2.49;100.00
75640;BME280;64233;51.486;6.332;2023-02-24T08:37:59;100667.28;;;2.56;100.00
75640;BME280;64233;51.486;6.332;2023-02-24T08:40:37;100675.03;;;2.57;100.00
75640;BME280;64233;51.486;6.332;2023-02-24T08:43:29;100666.88;;;2.59;100.00
75640;BME280;64233;51.486;6.332;2023-02-24T08:48:28;100658.94;;;2.59;100.00
75640;BME280;64233;51.486;6.332;2023-02-24T08:51:04;100654.25;;;2.61;100.00
75640;BME280;64233;51.486;6.332;2023-02-24T08:53:30;100658.94;;;2.66;100.00
75640;BME280;64233;51.486;6.332;2023-02-24T08:56:00;100654.03;;;2.69;100.00
75640;BME280;64233;51.486;6.332;2023-02-24T08:58:34;100654.69;;;2.71;100.00
75640;BME280;64233;51.486;6.332;2023-02-24T09:00:59;100653.88;;;2.78;100.00
75640;BME280;64233;51.486;6.332;2023-02-24T09:03:28;100641.84;;;2.82;100.00
75640;BME280;64233;51.486;6.332;2023-02-24T09:08:32;100635.34;;;2.91;100.00
75640;BME280;64233;51.486;6.332;2023-02-24T09:10:59;100643.69;;;2.95;100.00
75640;BME280;64233;51.486;6.332;2023-02-24T09:13:25;100634.91;;;2.94;100.00
75640;BME280;64233;51.486;6.332;2023-02-24T09:15:59;100642.06;;;3.00;100.00
75640;BME280;64233;51.486;6.332;2023-02-24T09:18:24;100634.09;;;3.00;100.00
75640;BME280;64233;51.486;6.332;2023-02-24T09:20:57;100623.50;;;3.00;100.00
75640;BME280;64233;51.486;6.332;2023-02-24T09:23:42;100606.78;;;3.00;100.00
75640;BME280;64233;51.486;6.332;2023-02-24T09:26:11;100602.69;;;3.04;100.00
75640;BME280;64233;51.486;6.332;2023-02-24T09:28:38;100603.28;;;3.06;100.00
75640;BME280;64233;51.486;6.332;2023-02-24T09:31:14;100597.56;;;3.09;100.00
75640;BME280;64233;51.486;6.332;2023-02-24T09:33:42;100596.13;;;3.13;100.00
75640;BME280;64233;51.486;6.332;2023-02-24T09:36:15;100592.47;;;3.14;100.00
75640;BME280;64233;51.486;6.332;2023-02-24T09:44:33;100582.28;;;3.18;100.00
75640;BME280;64233;51.486;6.332;2023-02-24T09:47:02;100578.19;;;3.08;100.00
75640;BME280;64233;51.486;6.332;2023-02-24T09:49:51;100577.19;;;3.09;100.00
75640;BME280;64233;51.486;6.332;2023-02-24T09:52:22;100568.22;;;3.10;100.00
75640;BME280;64233;51.486;6.332;2023-02-24T09:55:05;100565.16;;;3.07;100.00
75640;BME280;64233;51.486;6.332;2023-02-24T09:57:59;100560.84;;;3.06;100.00
75640;BME280;64233;51.486;6.332;2023-02-24T10:03:54;100552.09;;;3.05;100.00
75640;BME280;64233;51.486;6.332;2023-02-24T10:06:30;100550.25;;;3.06;100.00
75640;BME280;64233;51.486;6.332;2023-02-24T10:09:19;100547.38;;;3.07;100.00
75640;BME280;64233;51.486;6.332;2023-02-24T10:11:50;100549.03;;;3.08;100.00
75640;BME280;64233;51.486;6.332;2023-02-24T10:16:50;100546.59;;;3.14;100.00
75640;BME280;64233;51.486;6.332;2023-02-24T10:19:36;100540.44;;;3.13;100.00
75640;BME280;64233;51.486;6.332;2023-02-24T10:24:41;100534.13;;;3.07;100.00
75640;BME280;64233;51.486;6.332;2023-02-24T10:27:23;100524.56;;;3.06;100.00
75640;BME280;64233;51.486;6.332;2023-02-24T10:29:56;100521.47;;;3.16;100.00
75640;BME280;64233;51.486;6.332;2023-02-24T10:32:32;100521.69;;;3.08;100.00
75640;BME280;64233;51.486;6.332;2023-02-24T10:35:01;100507.59;;;3.07;100.00
75640;BME280;64233;51.486;6.332;2023-02-24T10:37:26;100517.84;;;2.97;100.00
75640;BME280;64233;51.486;6.332;2023-02-24T10:40:12;100505.59;;;3.03;100.00
75640;BME280;64233;51.486;6.332;2023-02-24T10:43:09;100510.88;;;3.03;100.00
75640;BME280;64233;51.486;6.332;2023-02-24T10:45:39;100509.06;;;2.97;100.00
75640;BME280;64233;51.486;6.332;2023-02-24T10:48:14;100515.19;;;2.97;100.00
75640;BME280;64233;51.486;6.332;2023-02-24T10:50:42;100512.75;;;2.96;100.00
75640;BME280;64233;51.486;6.332;2023-02-24T10:53:14;100512.75;;;2.96;100.00
75640;BME280;64233;51.486;6.332;2023-02-24T10:55:58;100496.63;;;2.90;100.00
75640;BME280;64233;51.486;6.332;2023-02-24T10:59:13;100497.47;;;2.84;100.00
75640;BME280;64233;51.486;6.332;2023-02-24T11:01:53;100495.44;;;2.80;100.00
75640;BME280;64233;51.486;6.332;2023-02-24T11:04:29;100490.13;;;2.80;100.00
75640;BME280;64233;51.486;6.332;2023-02-24T11:07:06;100489.50;;;2.84;100.00
75640;BME280;64233;51.486;6.332;2023-02-24T11:09:37;100479.72;;;2.85;100.00
75640;BME280;64233;51.486;6.332;2023-02-24T11:14:56;100473.19;;;2.87;100.00
75640;BME280;64233;51.486;6.332;2023-02-24T11:23:00;100444.66;;;2.76;100.00
75640;BME280;64233;51.486;6.332;2023-02-24T11:25:38;100449.75;;;2.84;100.00
75640;BME280;64233;51.486;6.332;2023-02-24T11:28:16;100446.50;;;2.82;100.00
75640;BME280;64233;51.486;6.332;2023-02-24T11:30:51;100436.91;;;2.81;100.00
75640;BME280;64233;51.486;6.332;2023-02-24T11:42:20;100426.31;;;2.74;100.00
75640;BME280;64233;51.486;6.332;2023-02-24T11:44:52;100421.00;;;2.81;100.00
75640;BME280;64233;51.486;6.332;2023-02-24T11:47:25;100419.16;;;2.82;100.00
75640;BME280;64233;51.486;6.332;2023-02-24T11:50:05;100410.41;;;2.81;100.00
75640;BME280;64233;51.486;6.332;2023-02-24T11:52:37;100401.00;;;2.85;100.00
75640;BME280;64233;51.486;6.332;2023-02-24T11:55:14;100398.38;;;2.79;100.00
75640;BME280;64233;51.486;6.332;2023-02-24T11:57:47;100408.13;;;2.85;100.00
75640;BME280;64233;51.486;6.332;2023-02-24T12:00:18;100405.25;;;2.86;100.00
75640;BME280;64233;51.486;6.332;2023-02-24T12:03:05;100393.84;;;2.86;100.00
75640;BME280;64233;51.486;6.332;2023-02-24T12:05:40;100388.09;;;3.02;100.00
75640;BME280;64233;51.486;6.332;2023-02-24T12:08:19;100381.16;;;3.01;100.00
75640;BME280;64233;51.486;6.332;2023-02-24T12:11:20;100366.25;;;3.00;100.00
75640;BME280;64233;51.486;6.332;2023-02-24T12:13:55;100367.91;;;3.01;100.00
75640;BME280;64233;51.486;6.332;2023-02-24T12:16:28;100364.69;;;2.92;100.00
75640;BME280;64233;51.486;6.332;2023-02-24T12:19:02;100361.16;;;3.05;100.00
75640;BME280;64233;51.486;6.332;2023-02-24T12:21:33;100356.50;;;3.01;100.00
75640;BME280;64233;51.486;6.332;2023-02-24T12:24:00;100348.31;;;3.02;100.00
75640;BME280;64233;51.486;6.332;2023-02-24T12:27:03;100345.00;;;3.14;100.00
75640;BME280;64233;51.486;6.332;2023-02-24T12:29:52;100346.59;;;3.21;100.00
75640;BME280;64233;51.486;6.332;2023-02-24T12:32:31;100328.47;;;3.12;100.00
75640;BME280;64233;51.486;6.332;2023-02-24T12:35:20;100329.91;;;3.14;100.00
75640;BME280;64233;51.486;6.332;2023-02-24T12:40:54;100324.78;;;3.19;100.00
75640;BME280;64233;51.486;6.332;2023-02-24T12:43:42;100322.69;;;3.28;100.00
75640;BME280;64233;51.486;6.332;2023-02-24T12:49:22;100314.69;;;3.35;100.00
75640;BME280;64233;51.486;6.332;2023-02-24T12:52:30;100308.94;;;3.38;100.00
75640;BME280;64233;51.486;6.332;2023-02-24T12:55:09;100302.63;;;3.39;100.00
75640;BME280;64233;51.486;6.332;2023-02-24T12:57:47;100299.56;;;3.35;100.00
75640;BME280;64233;51.486;6.332;2023-02-24T13:03:34;100289.59;;;3.31;100.00
75640;BME280;64233;51.486;6.332;2023-02-24T13:06:13;100293.84;;;3.38;100.00
75640;BME280;64233;51.486;6.332;2023-02-24T13:09:01;100279.16;;;3.36;100.00
75640;BME280;64233;51.486;6.332;2023-02-24T13:11:38;100283.06;;;3.33;100.00
75640;BME280;64233;51.486;6.332;2023-02-24T13:14:30;100282.56;;;3.43;100.00
75640;BME280;64233;51.486;6.332;2023-02-24T13:17:16;100268.97;;;3.33;100.00
75640;BME280;64233;51.486;6.332;2023-02-24T13:19:43;100271.59;;;3.39;100.00
75640;BME280;64233;51.486;6.332;2023-02-24T13:24:38;100261.19;;;3.38;100.00
75640;BME280;64233;51.486;6.332;2023-02-24T13:29:47;100255.50;;;3.34;100.00
75640;BME280;64233;51.486;6.332;2023-02-24T13:32:36;100248.94;;;3.37;100.00
75640;BME280;64233;51.486;6.332;2023-02-24T13:37:40;100237.44;;;3.43;100.00
75640;BME280;64233;51.486;6.332;2023-02-24T13:42:55;100239.75;;;3.39;100.00
75640;BME280;64233;51.486;6.332;2023-02-24T13:45:25;100228.34;;;3.39;100.00
75640;BME280;64233;51.486;6.332;2023-02-24T14:02:36;100214.50;;;3.55;100.00
75640;BME280;64233;51.486;6.332;2023-02-24T14:05:08;100211.97;;;3.67;100.00
75640;BME280;64233;51.486;6.332;2023-02-24T14:07:37;100213.50;;;3.75;100.00
75640;BME280;64233;51.486;6.332;2023-02-24T14:10:13;100214.75;;;3.72;100.00
75640;BME280;64233;51.486;6.332;2023-02-24T14:12:41;100210.47;;;3.71;100.00
75640;BME280;64233;51.486;6.332;2023-02-24T14:15:11;100201.91;;;3.69;100.00
75640;BME280;64233;51.486;6.332;2023-02-24T14:17:37;100203.34;;;3.72;100.00
75640;BME280;64233;51.486;6.332;2023-02-24T14:22:31;100191.59;;;3.79;100.00
75640;BME280;64233;51.486;6.332;2023-02-24T14:25:03;100192.22;;;3.82;100.00
75640;BME280;64233;51.486;6.332;2023-02-24T14:27:29;100187.03;;;3.87;100.00
75640;BME280;64233;51.486;6.332;2023-02-24T14:29:55;100187.25;;;3.85;100.00
75640;BME280;64233;51.486;6.332;2023-02-24T14:32:23;100190.88;;;3.91;100.00
75640;BME280;64233;51.486;6.332;2023-02-24T14:34:49;100176.56;;;3.92;100.00
75640;BME280;64233;51.486;6.332;2023-02-24T14:37:20;100176.84;;;4.02;100.00
75640;BME280;64233;51.486;6.332;2023-02-24T14:39:52;100170.56;;;4.15;100.00
75640;BME280;64233;51.486;6.332;2023-02-24T14:42:18;100169.69;;;4.21;100.00
75640;BME280;64233;51.486;6.332;2023-02-24T14:44:47;100153.13;;;4.38;100.00
75640;BME280;64233;51.486;6.332;2023-02-24T14:47:14;100156.09;;;4.60;100.00
75640;BME280;64233;51.486;6.332;2023-02-24T14:49:40;100167.44;;;4.67;100.00